Time;durP1;ratioP1;P1;durP2;ratioP2;P2;SDS_P1;SDS_P2;PMS_P1;PMS_P2;Temp;Humidity;BMP_temperature;BMP_pressure;BME280_temperature;BME280_humidity;BME280_pressure;Samples;Min_cycle;Max_cycle;Signal;HPM_P1;HPM_P2
2021/03/16 00:01:56;;;;;;;2.75;0.80;;;;;;;4.23;93.39;101027.28;5963330;23;20336;-93
2021/03/16 00:04:21;;;;;;;0.00;0.00;;;;;;;4.12;93.67;101001.63;6072158;23;20013;-93
2021/03/16 00:06:47;;;;;;;0.00;0.00;;;;;;;4.05;96.40;100994.34;6082760;23;20012;-93
2021/03/16 00:09:13;;;;;;;0.00;0.00;;;;;;;4.14;96.82;100997.00;6070646;23;20009;-94
2021/03/16 00:11:42;;;;;;;0.00;0.00;;;;;;;4.12;97.29;101017.56;6080559;23;20375;-92
2021/03/16 00:14:08;;;;;;;0.00;0.00;;;;;;;4.00;98.53;100976.13;6084481;23;19997;-92
2021/03/16 00:16:36;;;;;;;0.00;0.00;;;;;;;4.59;100.00;100998.44;6083895;23;20044;-93
2021/03/16 00:19:02;;;;;;;0.00;0.00;;;;;;;6.85;100.00;100983.44;6066780;23;20361;-92
2021/03/16 00:21:28;;;;;;;0.00;0.00;;;;;;;8.03;85.96;100976.03;6068176;23;20008;-92
2021/03/16 00:24:04;;;;;;;0.00;0.00;;;;;;;8.46;81.69;100980.44;6077179;23;20006;-93
2021/03/16 00:26:30;;;;;;;0.00;0.00;;;;;;;10.17;70.98;100999.31;6083638;23;20011;-92
2021/03/16 00:28:56;;;;;;;0.00;0.00;;;;;;;9.53;69.40;100971.56;6073332;23;20064;-93
2021/03/16 00:31:25;;;;;;;0.00;0.00;;;;;;;10.18;70.76;100963.41;6106286;23;20005;-92
2021/03/16 00:33:53;;;;;;;0.00;0.00;;;;;;;11.79;62.64;100960.88;6069513;23;20021;-92
2021/03/16 00:36:19;;;;;;;0.00;0.00;;;;;;;11.18;60.38;100960.06;6073407;23;20006;-93
2021/03/16 00:38:51;;;;;;;0.00;0.00;;;;;;;11.07;66.65;100969.38;6068826;23;20009;-93
2021/03/16 00:41:17;;;;;;;0.00;0.00;;;;;;;9.67;68.95;100992.34;6096219;23;20017;-92
2021/03/16 00:43:43;;;;;;;0.00;0.00;;;;;;;7.08;84.80;100975.00;6110560;23;20064;-94
2021/03/16 00:46:11;;;;;;;0.00;0.00;;;;;;;8.86;77.89;100973.53;6113133;23;20001;-92
2021/03/16 00:48:36;;;;;;;0.00;0.00;;;;;;;9.34;67.91;100955.84;6096571;23;20051;-92
2021/03/16 00:51:02;;;;;;;0.00;0.00;;;;;;;9.02;80.91;100984.28;6098800;23;20005;-92
2021/03/16 00:53:28;;;;;;;0.00;0.00;;;;;;;10.25;71.49;100963.56;6110759;23;20009;-93
2021/03/16 00:58:25;;;;;;;1.38;1.00;;;;;;;6.43;90.03;100940.44;6099665;23;20412;-95
2021/03/16 01:00:51;;;;;;;0.00;0.00;;;;;;;5.37;90.01;100952.28;6111043;23;20008;-92
2021/03/16 01:03:17;;;;;;;0.00;0.00;;;;;;;4.93;97.41;100951.84;6111664;23;20023;-93
2021/03/16 01:05:43;;;;;;;0.00;0.00;;;;;;;4.82;100.00;100941.34;6111537;23;20005;-94
2021/03/16 01:08:10;;;;;;;0.00;0.00;;;;;;;4.82;100.00;100978.59;6111151;23;20012;-91
2021/03/16 01:10:35;;;;;;;0.57;0.57;;;;;;;4.34;100.00;100947.44;6110729;23;20029;-91
2021/03/16 01:13:02;;;;;;;0.00;0.00;;;;;;;4.10;100.00;100957.56;6106549;23;20028;-92
2021/03/16 01:15:28;;;;;;;0.00;0.00;;;;;;;3.66;100.00;100947.16;6107362;23;20036;-94
2021/03/16 01:17:53;;;;;;;0.00;0.00;;;;;;;3.72;100.00;100954.59;6098364;23;20368;-93
2021/03/16 01:20:21;;;;;;;0.10;0.10;;;;;;;3.77;100.00;100943.56;6110898;23;19998;-93
2021/03/16 01:22:49;;;;;;;0.00;0.00;;;;;;;3.40;100.00;100922.81;6100449;23;20005;-93
2021/03/16 01:25:15;;;;;;;0.00;0.00;;;;;;;3.67;100.00;100963.94;6111991;23;20016;-92
2021/03/16 01:27:40;;;;;;;0.00;0.00;;;;;;;3.56;100.00;100945.41;6111085;23;20009;-92
2021/03/16 01:30:07;;;;;;;0.00;0.00;;;;;;;3.58;100.00;100922.22;6123036;23;20071;-93
2021/03/16 01:32:33;;;;;;;0.00;0.00;;;;;;;3.64;100.00;100927.00;6110881;23;20009;-92
2021/03/16 01:34:58;;;;;;;0.00;0.00;;;;;;;3.68;100.00;100928.41;6099891;23;20008;-92
2021/03/16 01:37:24;;;;;;;0.00;0.00;;;;;;;3.62;100.00;100939.56;6100659;23;20164;-93
2021/03/16 01:39:50;;;;;;;0.00;0.00;;;;;;;3.61;100.00;100932.59;6097447;23;20021;-94
2021/03/16 01:42:16;;;;;;;0.00;0.00;;;;;;;3.67;100.00;100946.16;6082909;23;20005;-93
2021/03/16 01:44:43;;;;;;;0.00;0.00;;;;;;;3.51;100.00;100910.44;6084094;23;20013;-92
2021/03/16 01:47:11;;;;;;;0.00;0.00;;;;;;;3.63;100.00;100933.28;6076274;23;20016;-93
2021/03/16 01:49:38;;;;;;;0.00;0.00;;;;;;;3.83;100.00;100942.22;6069857;23;20076;-93
2021/03/16 01:52:04;;;;;;;0.00;0.00;;;;;;;3.81;100.00;100936.16;6082383;23;20079;-91
2021/03/16 01:54:30;;;;;;;0.00;0.00;;;;;;;3.63;100.00;100906.72;6068916;23;20010;-91
2021/03/16 01:56:56;;;;;;;0.00;0.00;;;;;;;3.76;100.00;100925.09;6082074;23;20013;-93
2021/03/16 01:59:22;;;;;;;0.00;0.00;;;;;;;3.75;100.00;100926.91;6082698;23;20081;-91
2021/03/16 02:01:48;;;;;;;0.00;0.00;;;;;;;3.71;100.00;100909.59;6083068;23;20001;-92
2021/03/16 02:04:14;;;;;;;0.00;0.00;;;;;;;3.68;100.00;100908.03;6083567;23;20001;-93
2021/03/16 02:06:44;;;;;;;0.00;0.00;;;;;;;3.74;100.00;100900.50;6082057;23;20010;-93
2021/03/16 02:09:14;;;;;;;0.00;0.00;;;;;;;3.90;100.00;100927.41;6082131;23;20032;-93
2021/03/16 02:11:41;;;;;;;;;;;;;;;3.97;100.00;100929.38;6082826;23;20016;-91
2021/03/16 02:14:13;;;;;;;0.00;0.00;;;;;;;3.78;100.00;100891.28;6117863;23;19904;-94
2021/03/16 02:16:46;;;;;;;0.00;0.00;;;;;;;3.72;100.00;100911.25;6083378;23;20009;-91
2021/03/16 02:19:20;;;;;;;0.00;0.00;;;;;;;3.69;100.00;100906.19;6084329;23;20010;-91
2021/03/16 02:21:46;;;;;;;0.00;0.00;;;;;;;3.74;100.00;100901.34;6108017;23;20088;-92
2021/03/16 02:24:17;;;;;;;0.10;0.10;;;;;;;3.73;100.00;100899.66;6083824;23;20015;-90
2021/03/16 02:26:49;;;;;;;0.00;0.00;;;;;;;3.62;100.00;100892.63;6084230;23;20010;-92
2021/03/16 02:29:19;;;;;;;0.00;0.00;;;;;;;3.83;100.00;100911.16;6084397;23;20010;-92
2021/03/16 02:31:48;;;;;;;0.00;0.00;;;;;;;3.79;100.00;100907.09;6083906;23;20448;-92
2021/03/16 02:34:16;;;;;;;0.00;0.00;;;;;;;3.91;100.00;100902.53;6083768;23;20006;-92
2021/03/16 02:36:42;;;;;;;0.00;0.00;;;;;;;3.90;100.00;100907.00;6084238;23;20013;-92
2021/03/16 02:39:08;;;;;;;0.00;0.00;;;;;;;3.85;100.00;100895.94;6080476;23;20480;-92
2021/03/16 02:41:34;;;;;;;0.00;0.00;;;;;;;3.75;100.00;100881.75;6111970;23;20048;-91
2021/03/16 02:44:00;;;;;;;0.00;0.00;;;;;;;3.77;100.00;100879.84;6112724;23;20001;-91
2021/03/16 02:46:26;;;;;;;0.00;0.00;;;;;;;3.78;100.00;100886.81;6136803;23;20011;-91
2021/03/16 02:48:52;;;;;;;0.00;0.00;;;;;;;3.97;100.00;100888.69;6136958;23;20016;-91
2021/03/16 02:51:18;;;;;;;0.00;0.00;;;;;;;3.83;100.00;100873.97;6136761;23;20357;-94
2021/03/16 02:53:43;;;;;;;0.00;0.00;;;;;;;3.79;100.00;100869.06;6112799;23;20009;-92
2021/03/16 02:56:09;;;;;;;0.00;0.00;;;;;;;3.86;100.00;100889.63;6112972;23;20009;-92
2021/03/16 02:58:35;;;;;;;0.00;0.00;;;;;;;3.84;100.00;100883.63;6112059;23;20005;-91
2021/03/16 03:01:01;;;;;;;0.00;0.00;;;;;;;3.74;100.00;100864.16;6108706;23;20008;-93
2021/03/16 03:03:28;;;;;;;0.00;0.00;;;;;;;3.89;100.00;100856.66;6113289;23;20065;-93
2021/03/16 03:05:55;;;;;;;0.00;0.00;;;;;;;4.03;100.00;100868.72;6115593;23;20029;-91
2021/03/16 03:08:22;;;;;;;0.00;0.00;;;;;;;3.87;100.00;100866.56;6113452;23;20443;-92
2021/03/16 03:10:48;;;;;;;0.00;0.00;;;;;;;3.82;100.00;100853.72;6112522;23;20009;-91
2021/03/16 03:13:14;;;;;;;0.00;0.00;;;;;;;3.95;100.00;100880.03;6112527;23;20333;-92
2021/03/16 03:15:41;;;;;;;0.00;0.00;;;;;;;3.88;100.00;100871.78;6113681;23;20008;-93
2021/03/16 03:18:07;;;;;;;0.00;0.00;;;;;;;4.00;100.00;100885.78;6112890;23;19997;-92
2021/03/16 03:20:34;;;;;;;0.00;0.00;;;;;;;4.10;100.00;100888.47;6112350;23;20024;-94
2021/03/16 03:23:02;;;;;;;0.03;0.03;;;;;;;3.93;100.00;100860.75;6113246;23;20057;-93
2021/03/16 03:25:32;;;;;;;0.00;0.00;;;;;;;3.92;100.00;100851.91;6112978;23;20083;-92
2021/03/16 03:28:02;;;;;;;0.00;0.00;;;;;;;3.85;100.00;100842.81;6112951;23;20008;-92
2021/03/16 03:30:28;;;;;;;0.00;0.00;;;;;;;4.11;100.00;100888.34;6112277;23;20068;-91
2021/03/16 03:32:59;;;;;;;0.22;0.22;;;;;;;4.04;100.00;100854.47;6112213;23;20005;-94
2021/03/16 03:35:26;;;;;;;0.05;0.05;;;;;;;3.88;100.00;100833.75;6136073;23;20005;-93
2021/03/16 03:37:52;;;;;;;0.00;0.00;;;;;;;4.20;100.00;100870.72;6113185;23;20032;-91
2021/03/16 03:40:18;;;;;;;0.00;0.00;;;;;;;4.14;100.00;100868.59;6104954;23;20021;-92
2021/03/16 03:42:43;;;;;;;0.00;0.00;;;;;;;4.06;100.00;100858.69;6081181;23;20008;-92
2021/03/16 03:45:10;;;;;;;0.00;0.00;;;;;;;4.03;100.00;100858.94;6083449;23;20432;-92
2021/03/16 03:47:36;;;;;;;0.00;0.00;;;;;;;4.10;100.00;100865.41;6083410;23;20555;-93
2021/03/16 03:50:04;;;;;;;0.00;0.00;;;;;;;4.14;100.00;100866.78;6071230;23;20017;-92
2021/03/16 03:52:29;;;;;;;0.00;0.00;;;;;;;4.06;100.00;100841.91;6082464;23;20374;-94
2021/03/16 03:54:56;;;;;;;0.00;0.00;;;;;;;4.26;100.00;100875.50;6083291;23;20060;-92
2021/03/16 03:57:22;;;;;;;0.00;0.00;;;;;;;4.19;100.00;100877.03;6082993;23;20001;-92
2021/03/16 03:59:48;;;;;;;0.00;0.00;;;;;;;4.19;100.00;100877.03;6083109;23;20009;-92
2021/03/16 04:02:14;;;;;;;0.00;0.00;;;;;;;4.05;100.00;100850.84;6082464;23;20009;-91
2021/03/16 04:04:40;;;;;;;0.00;0.00;;;;;;;4.11;100.00;100867.09;6082745;23;20005;-95
2021/03/16 04:07:09;;;;;;;0.00;0.00;;;;;;;4.24;100.00;100869.47;6083429;23;20012;-93
2021/03/16 04:09:35;;;;;;;0.00;0.00;;;;;;;4.14;100.00;100850.84;6070643;23;20010;-93
2021/03/16 04:12:01;;;;;;;0.00;0.00;;;;;;;4.22;100.00;100874.09;6082182;23;20009;-94
2021/03/16 04:14:27;;;;;;;0.00;0.00;;;;;;;4.20;100.00;100863.59;6083816;23;20337;-93
2021/03/16 04:16:54;;;;;;;0.00;0.00;;;;;;;4.14;100.00;100861.47;6082745;23;20006;-92
2021/03/16 04:19:20;;;;;;;0.00;0.00;;;;;;;4.12;100.00;100849.31;6083072;23;20012;-94
2021/03/16 04:21:46;;;;;;;0.00;0.00;;;;;;;4.19;100.00;100858.41;6082541;23;20005;-93
2021/03/16 04:24:11;;;;;;;0.00;0.00;;;;;;;4.29;100.00;100880.53;6083542;23;20009;-94
2021/03/16 04:26:37;;;;;;;0.00;0.00;;;;;;;4.27;100.00;100850.63;6084356;23;20025;-94
2021/03/16 04:29:03;;;;;;;0.00;0.00;;;;;;;4.19;100.00;100853.09;6082738;23;20012;-92
2021/03/16 04:31:29;;;;;;;0.00;0.00;;;;;;;4.12;100.00;100834.22;6070776;23;20006;-94
2021/03/16 04:33:55;;;;;;;0.00;0.00;;;;;;;4.23;100.00;100860.66;6083141;23;20337;-92
2021/03/16 04:36:22;;;;;;;0.00;0.00;;;;;;;4.09;100.00;100841.59;6106088;23;20012;-92
2021/03/16 04:38:48;;;;;;;0.00;0.00;;;;;;;4.20;100.00;100830.84;6082673;23;20013;-93
2021/03/16 04:41:13;;;;;;;0.00;0.00;;;;;;;4.13;100.00;100811.13;6103210;23;20037;-94
2021/03/16 04:43:42;;;;;;;0.00;0.00;;;;;;;4.37;100.00;100850.59;6095036;23;20480;-92
2021/03/16 04:46:08;;;;;;;0.00;0.00;;;;;;;4.28;100.00;100841.66;6096627;23;20006;-93
2021/03/16 04:48:39;;;;;;;0.00;0.00;;;;;;;4.31;100.00;100849.34;6075495;23;20127;-92
2021/03/16 04:51:05;;;;;;;0.00;0.00;;;;;;;4.05;100.00;100833.09;6080408;23;20316;-92
2021/03/16 04:53:31;;;;;;;0.00;0.00;;;;;;;4.30;100.00;100838.84;6082851;23;20012;-93
2021/03/16 04:55:57;;;;;;;0.00;0.00;;;;;;;4.24;100.00;100843.75;6093621;23;20025;-93
2021/03/16 04:58:22;;;;;;;0.00;0.00;;;;;;;4.18;100.00;100840.78;6106367;23;20038;-93
2021/03/16 05:00:48;;;;;;;0.00;0.00;;;;;;;4.19;100.00;100821.22;6069449;23;19997;-91
2021/03/16 05:03:15;;;;;;;0.00;0.00;;;;;;;4.24;100.00;100833.09;6070752;23;20001;-92
2021/03/16 05:05:41;;;;;;;1.45;0.85;;;;;;;4.25;100.00;100820.66;6074052;23;20005;-93
2021/03/16 05:08:07;;;;;;;0.00;0.00;;;;;;;4.36;100.00;100843.63;6102597;23;20341;-92
2021/03/16 05:10:32;;;;;;;0.00;0.00;;;;;;;4.41;100.00;100844.88;6092629;23;20365;-92
2021/03/16 05:12:58;;;;;;;0.00;0.00;;;;;;;4.25;100.00;100837.44;6082225;23;20013;-92
2021/03/16 05:15:24;;;;;;;0.00;0.00;;;;;;;4.32;100.00;100832.44;6094841;23;20010;-94
2021/03/16 05:17:49;;;;;;;0.00;0.00;;;;;;;4.39;100.00;100846.84;6074108;23;20017;-92
2021/03/16 05:20:15;;;;;;;0.00;0.00;;;;;;;4.33;100.00;100835.94;6079609;23;20417;-95
2021/03/16 05:22:41;;;;;;;0.00;0.00;;;;;;;4.22;100.00;100826.25;6106228;23;20344;-94
2021/03/16 05:25:07;;;;;;;0.00;0.00;;;;;;;4.16;100.00;100816.19;6073993;23;20037;-92
2021/03/16 05:27:34;;;;;;;0.00;0.00;;;;;;;4.35;100.00;100858.72;6079230;23;20014;-92
2021/03/16 05:30:00;;;;;;;0.00;0.00;;;;;;;4.34;100.00;100833.13;6093967;23;20005;-91
2021/03/16 05:32:26;;;;;;;0.00;0.00;;;;;;;4.10;100.00;100809.59;6096445;23;20271;-94
2021/03/16 05:34:53;;;;;;;0.00;0.00;;;;;;;4.50;100.00;100851.19;6110141;23;20444;-91
2021/03/16 05:37:19;;;;;;;0.00;0.00;;;;;;;4.48;100.00;100863.78;6082808;23;20012;-91
2021/03/16 05:39:47;;;;;;;0.00;0.00;;;;;;;4.43;100.00;100844.72;6103809;23;20017;-92
2021/03/16 05:42:17;;;;;;;0.00;0.00;;;;;;;4.43;100.00;100847.38;6116613;23;20013;-93
2021/03/16 05:44:44;;;;;;;0.05;0.05;;;;;;;4.53;100.00;100858.88;6107393;23;20064;-93
2021/03/16 05:47:10;;;;;;;0.00;0.00;;;;;;;4.62;100.00;100860.72;6105220;23;20104;-94
2021/03/16 05:49:35;;;;;;;0.00;0.00;;;;;;;4.26;100.00;100817.00;6103450;23;20029;-91
2021/03/16 05:52:01;;;;;;;0.00;0.00;;;;;;;4.45;100.00;100837.47;6127067;23;20059;-94
2021/03/16 05:54:27;;;;;;;0.00;0.00;;;;;;;4.47;100.00;100841.66;6105714;23;20063;-91
2021/03/16 05:56:55;;;;;;;0.00;0.00;;;;;;;4.37;100.00;100846.13;6134194;23;20076;-91
2021/03/16 05:59:21;;;;;;;0.08;0.08;;;;;;;4.55;100.00;100880.03;6129709;23;20199;-91
2021/03/16 06:01:47;;;;;;;0.15;0.08;;;;;;;4.42;100.00;100856.34;6112393;23;20001;-93
2021/03/16 06:04:13;;;;;;;0.05;0.05;;;;;;;4.43;100.00;100864.22;6124989;23;20518;-94
2021/03/16 06:06:38;;;;;;;0.00;0.00;;;;;;;4.37;100.00;100840.81;6102318;23;20331;-93
2021/03/16 06:09:22;;;;;;;0.10;0.10;;;;;;;4.30;100.00;100838.84;6103131;23;20009;-93
2021/03/16 06:11:48;;;;;;;0.00;0.00;;;;;;;4.67;100.00;100889.56;6111502;23;20012;-94
2021/03/16 06:14:15;;;;;;;0.00;0.00;;;;;;;4.47;100.00;100867.41;6094537;23;20005;-92
2021/03/16 06:16:41;;;;;;;0.00;0.00;;;;;;;4.47;100.00;100872.72;6112546;23;20379;-93
2021/03/16 06:19:07;;;;;;;0.10;0.10;;;;;;;4.58;100.00;100863.78;6112799;23;20004;-93
2021/03/16 06:22:20;;;;;;;0.00;0.00;;;;;;;4.67;100.00;100900.19;6101722;23;20008;-93
2021/03/16 06:24:46;;;;;;;0.00;0.00;;;;;;;4.55;100.00;100866.75;6147689;23;20005;-94
2021/03/16 06:27:18;;;;;;;0.00;0.00;;;;;;;4.54;100.00;100862.38;6101075;23;20001;-95
2021/03/16 06:29:46;;;;;;;0.00;0.00;;;;;;;4.64;100.00;100865.88;6096921;23;20451;-92
2021/03/16 06:32:12;;;;;;;0.00;0.00;;;;;;;4.64;100.00;100857.91;6099583;23;20059;-94
2021/03/16 06:34:40;;;;;;;0.00;0.00;;;;;;;4.55;100.00;100864.91;6098874;23;20012;-92
2021/03/16 06:37:06;;;;;;;0.00;0.00;;;;;;;4.60;100.00;100852.06;6112535;23;20005;-95
2021/03/16 06:39:32;;;;;;;0.00;0.00;;;;;;;4.67;100.00;100877.09;6098077;23;20463;-95
2021/03/16 06:42:01;;;;;;;0.00;0.00;;;;;;;4.52;100.00;100849.22;6108616;23;20001;-93
2021/03/16 06:44:27;;;;;;;0.00;0.00;;;;;;;4.74;100.00;100867.56;6128429;23;20012;-92
2021/03/16 06:46:54;;;;;;;0.00;0.00;;;;;;;4.86;100.00;100875.41;6113246;23;20005;-94
2021/03/16 06:49:21;;;;;;;0.00;0.00;;;;;;;4.93;100.00;100866.72;6102149;23;20231;-93
2021/03/16 06:51:47;;;;;;;0.00;0.00;;;;;;;6.24;100.00;100905.88;6108177;23;20055;-95
2021/03/16 06:54:25;;;;;;;0.05;0.05;;;;;;;5.86;100.00;100862.41;6100417;23;20005;-95
2021/03/16 06:56:55;;;;;;;0.00;0.00;;;;;;;5.87;100.00;100905.88;6101532;23;20008;-92
2021/03/16 06:59:24;;;;;;;0.00;0.00;;;;;;;5.89;100.00;100871.91;6113413;23;20008;-95
2021/03/16 07:01:52;;;;;;;0.00;0.00;;;;;;;7.21;100.00;100900.66;6105140;23;20467;-94
2021/03/16 07:04:20;;;;;;;0.00;0.00;;;;;;;7.60;100.00;100890.41;6108372;23;20001;-93
2021/03/16 07:06:47;;;;;;;0.00;0.00;;;;;;;7.03;100.00;100868.66;6125228;23;20001;-93
2021/03/16 07:09:13;;;;;;;0.00;0.00;;;;;;;6.44;100.00;100904.75;6112506;23;20013;-91
2021/03/16 07:11:43;;;;;;;0.00;0.00;;;;;;;6.15;100.00;100888.94;6097217;23;20029;-93
2021/03/16 07:14:09;;;;;;;0.00;0.00;;;;;;;6.34;100.00;100896.84;6102759;23;20100;-93
2021/03/16 07:16:35;;;;;;;0.00;0.00;;;;;;;6.40;100.00;100870.53;6110308;23;20036;-93
2021/03/16 07:19:04;;;;;;;0.00;0.00;;;;;;;6.73;100.00;100906.38;6113046;23;19997;-93
2021/03/16 07:21:35;;;;;;;0.00;0.00;;;;;;;6.75;100.00;100880.41;6096070;23;20056;-95
2021/03/16 07:24:06;;;;;;;0.00;0.00;;;;;;;6.80;100.00;100883.47;6096546;23;20005;-94
2021/03/16 07:26:41;;;;;;;0.00;0.00;;;;;;;7.13;100.00;100890.75;6099639;23;20008;-93
2021/03/16 07:29:07;;;;;;;0.00;0.00;;;;;;;7.15;100.00;100890.59;6113389;23;20005;-93
2021/03/16 07:31:48;;;;;;;0.00;0.00;;;;;;;7.60;100.00;100911.78;6095233;23;20016;-93
2021/03/16 07:37:53;;;;;;;0.00;0.00;;;;;;;7.51;100.00;100902.03;6026454;23;20011;-92
2021/03/16 07:40:03;;;;;;;0.00;0.00;;;;;;;7.67;100.00;100896.78;6157339;23;20013;-93
2021/03/16 07:42:31;;;;;;;;;;;;;;;7.87;100.00;100934.00;6117370;23;20013;-93
2021/03/16 07:45:09;;;;;;;0.00;0.00;;;;;;;7.79;100.00;100917.91;6118458;23;19950;-95
2021/03/16 07:51:25;;;;;;;0.00;0.00;;;;;;;8.08;100.00;100931.78;6129764;23;20327;-94
2021/03/16 07:54:40;;;;;;;0.00;0.00;;;;;;;8.42;100.00;100957.69;6143877;23;20136;-94
2021/03/16 07:57:20;;;;;;;0.00;0.00;;;;;;;8.34;100.00;100971.81;6121389;23;20012;-94
2021/03/16 07:59:57;;;;;;;0.00;0.00;;;;;;;8.04;100.00;100950.97;6137061;23;20001;-95
2021/03/16 08:13:51;;;;;;;0.00;0.00;;;;;;;8.30;100.00;100981.16;6012202;23;20090;-95
